Time;durP1;ratioP1;P1;durP2;ratioP2;P2;SDS_P1;SDS_P2;PMS_P1;PMS_P2;Temp;Humidity;BMP_temperature;BMP_pressure;BME280_temperature;BME280_humidity;BME280_pressure;Samples;Min_cycle;Max_cycle;Signal;HPM_P1;HPM_P2
2022/07/20 00:00:04;;;;;;;9.88;3.22;;;25.70;51.10;;;;;;4971051;28;20392;-61
2022/07/20 00:02:29;;;;;;;7.10;3.00;;;25.70;51.10;;;;;;4970937;28;20030;-60
2022/07/20 00:04:55;;;;;;;5.18;3.25;;;25.60;51.60;;;;;;4969992;28;20563;-59
2022/07/20 00:07:20;;;;;;;5.40;2.83;;;25.70;51.30;;;;;;4971081;28;20065;-58
2022/07/20 00:12:30;;;;;;;8.05;2.90;;;25.60;51.60;;;;;;4969606;28;20037;-59
2022/07/20 00:14:56;;;;;;;6.90;3.28;;;25.70;51.30;;;;;;4969527;28;20027;-61
2022/07/20 00:17:21;;;;;;;13.35;3.30;;;25.70;51.40;;;;;;4970701;28;20481;-61
2022/07/20 00:19:47;;;;;;;5.53;2.72;;;25.60;52.40;;;;;;4970165;28;20144;-61
2022/07/20 00:22:13;;;;;;;5.05;3.00;;;25.40;53.00;;;;;;4968292;28;20038;-60
2022/07/20 00:24:38;;;;;;;6.00;2.53;;;25.30;53.00;;;;;;4967434;28;20035;-59
2022/07/20 00:27:04;;;;;;;4.50;2.60;;;25.30;52.10;;;;;;4969729;28;20035;-59
2022/07/20 00:29:29;;;;;;;12.95;4.35;;;25.30;52.20;;;;;;4970655;28;20093;-60
2022/07/20 00:31:55;;;;;;;7.05;2.75;;;25.40;51.90;;;;;;4969588;28;20037;-60
2022/07/20 00:34:20;;;;;;;7.05;3.55;;;25.30;51.90;;;;;;4966940;28;20632;-60
2022/07/20 00:36:46;;;;;;;6.15;3.08;;;25.40;52.10;;;;;;4968606;28;20039;-60
2022/07/20 00:39:12;;;;;;;10.80;3.30;;;25.30;51.90;;;;;;4969982;28;20089;-57
2022/07/20 00:41:37;;;;;;;9.70;3.13;;;25.30;51.80;;;;;;4970507;28;20101;-60
2022/07/20 00:44:05;;;;;;;4.60;2.28;;;25.30;51.90;;;;;;4969982;28;20031;-59
2022/07/20 00:46:33;;;;;;;6.55;2.97;;;25.30;51.80;;;;;;4970556;28;20126;-61
2022/07/20 00:48:59;;;;;;;6.93;3.10;;;25.40;51.80;;;;;;4969358;28;20069;-60
2022/07/20 00:51:25;;;;;;;9.45;2.70;;;25.30;52.00;;;;;;4969589;28;20054;-61
2022/07/20 00:53:51;;;;;;;3.92;2.70;;;25.40;51.90;;;;;;4969670;28;20122;-61
2022/07/20 00:56:18;;;;;;;6.45;3.28;;;25.30;52.20;;;;;;4966421;28;20023;-57
2022/07/20 00:58:45;;;;;;;7.80;3.13;;;25.30;52.10;;;;;;4979434;28;20057;-62
2022/07/20 01:01:11;;;;;;;12.40;2.80;;;25.20;52.80;;;;;;4971981;28;20708;-60
2022/07/20 01:03:37;;;;;;;8.02;3.10;;;25.30;52.30;;;;;;4971163;28;20030;-60
2022/07/20 01:06:03;;;;;;;4.03;2.58;;;25.20;52.70;;;;;;4971255;28;20027;-61
2022/07/20 01:08:30;;;;;;;5.82;2.88;;;25.30;52.50;;;;;;4967853;28;20030;-60
2022/07/20 01:10:57;;;;;;;5.15;2.85;;;25.20;52.40;;;;;;4969048;28;20131;-61
2022/07/20 01:13:23;;;;;;;6.13;3.13;;;25.20;52.60;;;;;;4970906;28;20026;-61
2022/07/20 01:15:49;;;;;;;6.57;2.83;;;25.20;52.40;;;;;;4973888;28;20451;-61
2022/07/20 01:18:15;;;;;;;4.90;2.53;;;25.10;52.50;;;;;;4970396;28;20102;-60
2022/07/20 01:20:45;;;;;;;6.18;2.80;;;25.10;52.70;;;;;;4971335;28;20736;-59
2022/07/20 01:23:11;;;;;;;9.50;3.45;;;25.10;52.60;;;;;;4963571;28;20105;-61
2022/07/20 01:25:37;;;;;;;8.80;3.45;;;25.10;52.70;;;;;;4971135;28;20034;-61
2022/07/20 01:28:07;;;;;;;20.90;3.63;;;25.10;52.70;;;;;;4970588;28;20027;-61
2022/07/20 01:30:33;;;;;;;9.05;4.30;;;25.10;52.70;;;;;;4971316;28;20484;-61
2022/07/20 01:32:58;;;;;;;7.13;3.22;;;25.00;52.80;;;;;;4960189;28;20038;-61
2022/07/20 01:35:24;;;;;;;4.97;2.83;;;25.00;52.90;;;;;;4970827;28;20031;-59
2022/07/20 01:37:50;;;;;;;4.40;2.85;;;25.00;53.10;;;;;;4970317;28;20042;-62
2022/07/20 01:40:15;;;;;;;6.43;3.40;;;25.00;52.90;;;;;;4973360;28;20057;-61
2022/07/20 01:42:41;;;;;;;5.90;2.97;;;24.90;53.10;;;;;;4974153;28;20097;-61
2022/07/20 01:45:07;;;;;;;6.95;3.17;;;24.90;53.10;;;;;;4973657;28;20050;-60
2022/07/20 01:47:32;;;;;;;6.00;2.95;;;24.90;53.30;;;;;;4973424;28;20560;-59
2022/07/20 01:49:58;;;;;;;5.82;3.75;;;24.90;53.10;;;;;;4972838;28;20512;-60
2022/07/20 01:52:24;;;;;;;6.35;3.33;;;25.00;53.10;;;;;;4973708;28;20022;-61
2022/07/20 01:54:49;;;;;;;6.93;2.92;;;24.90;53.20;;;;;;4974385;28;20037;-61
2022/07/20 01:57:15;;;;;;;3.97;2.90;;;24.80;53.60;;;;;;4974182;28;20535;-62
2022/07/20 01:59:41;;;;;;;10.65;3.53;;;24.80;53.60;;;;;;4973922;28;20113;-61
2022/07/20 02:02:06;;;;;;;13.52;3.28;;;24.70;53.70;;;;;;4973935;28;20031;-60
2022/07/20 02:04:32;;;;;;;7.70;2.70;;;24.70;53.60;;;;;;4974418;28;20089;-56
2022/07/20 02:06:57;;;;;;;13.95;3.47;;;24.60;54.00;;;;;;4973453;28;20031;-62
2022/07/20 02:09:23;;;;;;;11.20;2.85;;;24.70;53.70;;;;;;4973647;28;20598;-60
2022/07/20 02:11:49;;;;;;;9.57;2.97;;;24.70;53.90;;;;;;4974764;28;20404;-61
2022/07/20 02:14:14;;;;;;;5.72;3.35;;;24.70;53.90;;;;;;4973458;28;20047;-61
2022/07/20 02:16:40;;;;;;;12.48;2.50;;;24.60;54.40;;;;;;4974412;28;20054;-59
2022/07/20 02:19:05;;;;;;;5.40;3.03;;;24.60;54.00;;;;;;4973486;28;20061;-62
2022/07/20 02:21:31;;;;;;;6.70;2.70;;;24.60;54.10;;;;;;4973402;28;20023;-60
2022/07/20 02:23:57;;;;;;;8.45;2.80;;;24.60;54.00;;;;;;4972647;28;20030;-60
2022/07/20 02:26:24;;;;;;;8.20;2.97;;;24.60;54.00;;;;;;4970932;28;20117;-62
2022/07/20 02:28:49;;;;;;;4.45;2.80;;;24.40;54.40;;;;;;4974199;28;20054;-62
2022/07/20 02:31:18;;;;;;;10.48;3.63;;;24.50;54.20;;;;;;4973234;28;20054;-62
2022/07/20 02:33:44;;;;;;;9.52;2.67;;;24.40;54.30;;;;;;4974302;28;20049;-62
2022/07/20 02:36:10;;;;;;;14.32;3.20;;;24.50;54.10;;;;;;4972736;28;20050;-61
2022/07/20 02:38:36;;;;;;;6.20;2.80;;;24.40;54.40;;;;;;4974207;28;20026;-61
2022/07/20 02:41:02;;;;;;;6.93;3.08;;;24.40;54.40;;;;;;4973329;28;20034;-61
2022/07/20 02:43:28;;;;;;;9.07;3.05;;;24.30;54.30;;;;;;4973919;28;20035;-60
2022/07/20 02:45:53;;;;;;;9.73;3.22;;;24.30;54.40;;;;;;4972352;28;20038;-60
2022/07/20 02:48:19;;;;;;;4.65;2.65;;;24.40;54.30;;;;;;4973881;28;20031;-60
2022/07/20 02:50:45;;;;;;;13.57;3.55;;;24.40;54.20;;;;;;4979955;28;20041;-62
2022/07/20 02:53:12;;;;;;;11.38;3.10;;;24.40;54.30;;;;;;4973472;28;20436;-61
2022/07/20 02:55:38;;;;;;;6.05;2.88;;;24.40;54.30;;;;;;4971237;28;20488;-60
2022/07/20 02:58:05;;;;;;;8.88;2.92;;;24.40;54.40;;;;;;4971537;28;20026;-62
2022/07/20 03:00:30;;;;;;;7.28;2.65;;;24.40;54.40;;;;;;4973404;28;20074;-60
2022/07/20 03:02:57;;;;;;;8.70;3.33;;;24.40;54.40;;;;;;4972840;28;20034;-60
2022/07/20 03:05:23;;;;;;;8.25;3.10;;;24.30;54.30;;;;;;4973012;28;20369;-60
2022/07/20 03:07:49;;;;;;;6.18;3.10;;;24.20;54.60;;;;;;4972433;28;20033;-58
2022/07/20 03:10:15;;;;;;;5.95;2.72;;;24.30;54.60;;;;;;4973412;28;20117;-60
2022/07/20 03:12:41;;;;;;;5.20;3.03;;;24.20;54.80;;;;;;4972514;28;20041;-60
2022/07/20 03:15:07;;;;;;;12.73;3.30;;;24.20;55.00;;;;;;4973132;28;20019;-59
2022/07/20 03:17:39;;;;;;;6.20;3.08;;;24.10;54.90;;;;;;4971890;28;20025;-61
2022/07/20 03:20:05;;;;;;;6.93;2.95;;;24.10;55.50;;;;;;4971951;28;20519;-61
2022/07/20 03:22:31;;;;;;;8.52;3.22;;;24.20;54.80;;;;;;4972387;28;20039;-60
2022/07/20 03:24:56;;;;;;;8.32;3.03;;;24.10;54.70;;;;;;4972941;28;20102;-62
2022/07/20 03:27:22;;;;;;;8.10;2.80;;;24.30;54.50;;;;;;4972684;28;20559;-62
2022/07/20 03:29:47;;;;;;;5.30;2.80;;;24.10;54.90;;;;;;4972670;28;20031;-61
2022/07/20 03:32:13;;;;;;;6.05;2.90;;;24.20;54.90;;;;;;4972135;28;20027;-62
2022/07/20 03:34:38;;;;;;;5.80;2.75;;;24.20;55.00;;;;;;4972634;28;20027;-61
2022/07/20 03:37:04;;;;;;;9.07;2.92;;;24.20;55.10;;;;;;5001851;22;20137;-57
2022/07/20 03:39:30;;;;;;;7.70;3.13;;;24.20;55.00;;;;;;4990735;28;20026;-57
2022/07/20 03:41:55;;;;;;;12.05;3.28;;;24.10;56.50;;;;;;4991577;28;20030;-56
2022/07/20 03:44:21;;;;;;;4.78;3.15;;;24.00;55.40;;;;;;4992301;28;20444;-57
2022/07/20 03:46:47;;;;;;;4.72;2.97;;;24.00;55.80;;;;;;4990138;28;20035;-56
2022/07/20 03:49:12;;;;;;;10.57;2.80;;;24.00;56.00;;;;;;4991647;28;20118;-57
2022/07/20 03:51:38;;;;;;;11.90;3.15;;;24.10;55.10;;;;;;4990187;28;20054;-58
2022/07/20 03:54:05;;;;;;;10.93;3.05;;;24.10;55.20;;;;;;4992204;28;20532;-57
2022/07/20 03:56:31;;;;;;;7.65;3.33;;;24.30;54.60;;;;;;4992071;28;20054;-56
2022/07/20 03:58:57;;;;;;;9.65;2.83;;;24.40;54.40;;;;;;4989809;28;20065;-55
2022/07/20 04:01:22;;;;;;;6.57;2.83;;;24.40;54.50;;;;;;4990227;28;20058;-56
2022/07/20 04:03:48;;;;;;;8.55;3.42;;;24.50;54.40;;;;;;4991572;28;20654;-57
2022/07/20 04:06:13;;;;;;;10.90;3.22;;;24.50;54.20;;;;;;4990113;28;20046;-58
2022/07/20 04:08:39;;;;;;;6.32;2.95;;;24.50;54.40;;;;;;4990839;28;20109;-58
2022/07/20 04:11:05;;;;;;;9.60;2.72;;;24.50;54.30;;;;;;4991825;28;20034;-54
2022/07/20 04:13:30;;;;;;;6.97;3.40;;;24.50;54.40;;;;;;4990677;28;20049;-56
2022/07/20 04:15:56;;;;;;;6.05;3.05;;;24.60;54.60;;;;;;4989511;28;20479;-59
2022/07/20 04:18:21;;;;;;;10.18;3.58;;;24.50;54.40;;;;;;4989193;28;20033;-59
2022/07/20 04:20:47;;;;;;;8.50;3.05;;;24.50;54.30;;;;;;4992023;28;20518;-59
2022/07/20 04:23:12;;;;;;;9.52;3.08;;;24.30;63.60;;;;;;4991413;28;20034;-59
2022/07/20 04:25:38;;;;;;;6.38;3.72;;;24.10;61.00;;;;;;4991089;28;20056;-58
2022/07/20 04:28:04;;;;;;;5.40;2.92;;;24.00;62.40;;;;;;4991155;28;20030;-59
2022/07/20 04:30:31;;;;;;;9.52;3.28;;;23.90;59.30;;;;;;4990185;28;20061;-59
2022/07/20 04:32:57;;;;;;;10.50;3.65;;;23.90;60.00;;;;;;4991664;28;20117;-59
2022/07/20 04:35:23;;;;;;;13.32;4.10;;;23.70;64.70;;;;;;4989961;28;20031;-59
2022/07/20 04:37:48;;;;;;;8.90;3.20;;;23.70;67.10;;;;;;4991427;28;20070;-59
2022/07/20 04:40:14;;;;;;;7.15;3.33;;;23.80;62.80;;;;;;4989754;28;20043;-59
2022/07/20 04:42:39;;;;;;;9.20;3.63;;;24.40;63.10;;;;;;4991305;28;20549;-57
2022/07/20 04:45:05;;;;;;;8.57;3.15;;;25.10;63.60;;;;;;4989721;28;20030;-59
2022/07/20 04:47:31;;;;;;;4.45;2.90;;;26.10;60.10;;;;;;4990752;28;20496;-59
2022/07/20 04:49:57;;;;;;;9.27;3.10;;;27.20;58.10;;;;;;4989629;28;20093;-60
2022/07/20 04:52:22;;;;;;;10.13;3.15;;;28.10;59.80;;;;;;4991441;28;20050;-56
2022/07/20 04:54:48;;;;;;;6.50;2.72;;;28.50;57.10;;;;;;4989418;28;20503;-57
2022/07/20 04:57:13;;;;;;;8.75;2.92;;;29.10;55.70;;;;;;4990665;28;20073;-57
2022/07/20 04:59:39;;;;;;;13.63;3.78;;;29.80;52.10;;;;;;4989580;28;20036;-56
2022/07/20 05:02:04;;;;;;;6.82;2.63;;;30.30;55.00;;;;;;4990924;28;20026;-58
2022/07/20 05:04:30;;;;;;;6.72;2.53;;;30.50;54.30;;;;;;4990107;28;20034;-59
2022/07/20 05:06:56;;;;;;;9.90;2.90;;;30.80;54.00;;;;;;4989661;28;20044;-57
2022/07/20 05:09:21;;;;;;;5.32;2.72;;;31.30;53.10;;;;;;4989100;28;20080;-57
2022/07/20 05:11:47;;;;;;;6.43;2.63;;;31.60;52.70;;;;;;4991178;28;20024;-57
2022/07/20 05:14:13;;;;;;;10.55;3.65;;;32.10;52.90;;;;;;4992113;28;20404;-58
2022/07/20 05:16:39;;;;;;;8.38;3.05;;;32.40;52.80;;;;;;4994579;28;20069;-58
2022/07/20 05:19:04;;;;;;;8.20;2.45;;;32.60;53.10;;;;;;4994227;28;20057;-59
2022/07/20 05:21:30;;;;;;;9.50;3.15;;;32.90;51.20;;;;;;4993795;28;20148;-57
2022/07/20 05:23:56;;;;;;;5.82;2.65;;;33.20;51.70;;;;;;4993891;28;20034;-58
2022/07/20 05:26:21;;;;;;;3.60;2.65;;;33.40;52.10;;;;;;4994436;28;20030;-58
2022/07/20 05:28:47;;;;;;;5.22;2.75;;;33.80;48.90;;;;;;4993497;28;20030;-59
2022/07/20 05:31:15;;;;;;;7.05;3.15;;;34.10;48.40;;;;;;4994323;28;20031;-57
2022/07/20 05:33:42;;;;;;;9.82;2.97;;;34.20;49.90;;;;;;4993060;28;20085;-58
2022/07/20 05:36:08;;;;;;;8.20;2.95;;;34.40;49.20;;;;;;4994362;28;20512;-58
2022/07/20 05:38:35;;;;;;;11.65;2.95;;;34.50;49.30;;;;;;4992156;28;20576;-59
2022/07/20 05:41:00;;;;;;;13.65;4.00;;;34.50;44.80;;;;;;4994835;28;20080;-59
2022/07/20 05:43:26;;;;;;;9.38;3.63;;;34.00;45.60;;;;;;4993581;28;20046;-59
2022/07/20 05:45:52;;;;;;;14.23;4.03;;;34.00;46.30;;;;;;4994014;28;20027;-58
2022/07/20 05:48:17;;;;;;;11.45;4.35;;;34.50;46.00;;;;;;4994203;28;20045;-57
2022/07/20 05:50:44;;;;;;;12.57;5.10;;;35.10;45.20;;;;;;4994771;28;20022;-58
2022/07/20 05:53:11;;;;;;;10.68;5.05;;;35.10;45.10;;;;;;4993582;28;20507;-55
2022/07/20 05:55:38;;;;;;;12.07;4.80;;;35.70;45.50;;;;;;4992649;28;20488;-57
2022/07/20 05:58:05;;;;;;;17.25;5.15;;;35.40;44.70;;;;;;4992628;28;20027;-57
2022/07/20 06:00:32;;;;;;;9.65;4.38;;;35.70;45.00;;;;;;4994362;28;20400;-57
2022/07/20 06:02:58;;;;;;;22.80;5.00;;;35.80;44.50;;;;;;4993151;28;20034;-59
2022/07/20 06:05:24;;;;;;;10.93;4.53;;;36.10;44.70;;;;;;4992594;28;20032;-59
2022/07/20 06:07:50;;;;;;;11.43;4.57;;;36.40;44.30;;;;;;4993214;28;20030;-57
2022/07/20 06:10:15;;;;;;;10.48;4.05;;;36.70;43.80;;;;;;4992553;28;20487;-58
2022/07/20 06:12:41;;;;;;;10.98;3.85;;;37.00;43.10;;;;;;4993029;28;20026;-58
2022/07/20 06:15:07;;;;;;;9.38;4.60;;;37.00;43.50;;;;;;4993641;28;20034;-58
2022/07/20 06:17:37;;;;;;;13.20;5.30;;;36.80;43.90;;;;;;4993939;28;20117;-59
2022/07/20 06:20:09;;;;;;;14.98;5.15;;;36.40;43.40;;;;;;4992760;28;20037;-58
2022/07/20 06:22:36;;;;;;;17.83;6.13;;;36.60;44.70;;;;;;4993692;28;20030;-59
2022/07/20 06:25:04;;;;;;;17.67;6.45;;;36.20;46.20;;;;;;4992193;28;20077;-58
2022/07/20 06:27:29;;;;;;;16.02;6.88;;;35.90;45.00;;;;;;4993698;28;20038;-57
2022/07/20 06:29:55;;;;;;;22.75;8.02;;;36.00;45.60;;;;;;4991993;28;20109;-57
2022/07/20 06:32:21;;;;;;;12.93;7.75;;;37.20;45.90;;;;;;4993377;28;20026;-57
2022/07/20 06:34:46;;;;;;;14.50;8.82;;;36.90;46.60;;;;;;4993180;28;20094;-59
2022/07/20 06:37:13;;;;;;;18.05;10.15;;;36.90;46.00;;;;;;4993624;28;20488;-59
2022/07/20 06:39:38;;;;;;;24.50;9.20;;;36.40;45.90;;;;;;4992640;28;20048;-59
2022/07/20 06:42:04;;;;;;;16.67;8.57;;;37.50;46.80;;;;;;4993445;28;20381;-58
2022/07/20 06:44:30;;;;;;;13.27;9.18;;;37.30;46.40;;;;;;4992562;28;20030;-59
2022/07/20 06:46:56;;;;;;;16.80;9.18;;;37.50;45.50;;;;;;4993416;28;20038;-59
2022/07/20 06:49:22;;;;;;;18.25;9.35;;;37.60;46.00;;;;;;4992034;28;20080;-59
2022/07/20 06:51:47;;;;;;;21.23;10.02;;;37.40;45.80;;;;;;4993306;28;20361;-59
2022/07/20 06:54:13;;;;;;;19.58;9.13;;;37.20;45.60;;;;;;4992313;28;20037;-59
2022/07/20 06:56:38;;;;;;;19.50;10.23;;;37.20;46.00;;;;;;4991869;28;20030;-59
2022/07/20 06:59:04;;;;;;;17.50;10.00;;;37.20;46.30;;;;;;4991696;28;20416;-60
2022/07/20 07:01:29;;;;;;;15.13;8.85;;;37.20;47.10;;;;;;4993186;28;20705;-57
2022/07/20 07:03:55;;;;;;;20.83;9.95;;;37.20;46.90;;;;;;4992611;28;20034;-58
2022/07/20 07:06:24;;;;;;;13.45;8.95;;;37.40;46.80;;;;;;4992564;28;22067;-58
2022/07/20 07:08:49;;;;;;;17.35;9.38;;;37.30;47.40;;;;;;4992008;28;20516;-57
2022/07/20 07:11:15;;;;;;;18.25;10.25;;;37.70;46.10;;;;;;4992738;28;20034;-59
2022/07/20 07:13:40;;;;;;;17.65;9.50;;;38.10;46.00;;;;;;4993573;28;20030;-57
2022/07/20 07:16:06;;;;;;;18.23;10.77;;;38.10;45.80;;;;;;4992554;28;20026;-59
2022/07/20 07:18:32;;;;;;;15.45;10.07;;;37.80;45.80;;;;;;4992291;28;20061;-59
2022/07/20 07:20:57;;;;;;;19.63;9.98;;;38.20;45.20;;;;;;4992902;28;20036;-59
2022/07/20 07:23:23;;;;;;;17.85;10.20;;;38.30;46.60;;;;;;4991825;28;20158;-59
2022/07/20 07:25:49;;;;;;;20.90;10.98;;;38.20;45.90;;;;;;4992252;28;20026;-59
2022/07/20 07:28:15;;;;;;;16.90;10.15;;;38.80;46.00;;;;;;4991854;28;20045;-59
2022/07/20 07:30:41;;;;;;;19.25;10.10;;;38.70;45.60;;;;;;4992301;28;20056;-59
2022/07/20 07:33:06;;;;;;;22.00;10.55;;;38.70;46.20;;;;;;4991288;28;20435;-59
2022/07/20 07:35:32;;;;;;;16.73;10.55;;;39.20;45.00;;;;;;4990478;28;20030;-59
2022/07/20 07:37:58;;;;;;;26.92;12.10;;;38.00;47.00;;;;;;4990268;28;20053;-59
2022/07/20 07:40:23;;;;;;;20.10;11.35;;;37.70;47.00;;;;;;4992118;28;20033;-58
2022/07/20 07:42:49;;;;;;;19.90;12.52;;;37.20;47.70;;;;;;4991601;28;20030;-58
2022/07/20 07:45:14;;;;;;;19.67;13.02;;;36.60;48.80;;;;;;4991105;28;20030;-58
2022/07/20 07:47:41;;;;;;;19.35;13.05;;;36.00;49.40;;;;;;4992291;28;20121;-58
2022/07/20 07:50:07;;;;;;;20.08;13.18;;;35.10;51.00;;;;;;4990664;28;20027;-59
2022/07/20 07:52:33;;;;;;;22.70;14.35;;;34.40;52.50;;;;;;4992194;28;20077;-58
2022/07/20 07:54:58;;;;;;;24.58;13.98;;;34.00;52.70;;;;;;4990093;28;20026;-58
2022/07/20 07:57:24;;;;;;;22.00;13.05;;;33.60;53.40;;;;;;4968493;28;20516;-58
2022/07/20 07:59:49;;;;;;;20.73;14.00;;;32.80;54.00;;;;;;4988478;28;20026;-56
2022/07/20 08:02:15;;;;;;;33.83;14.50;;;32.70;55.00;;;;;;4988181;28;20424;-57
2022/07/20 08:04:40;;;;;;;24.48;14.30;;;32.20;55.00;;;;;;4991293;28;20113;-55
2022/07/20 08:07:06;;;;;;;22.88;14.80;;;32.20;55.10;;;;;;4989781;28;20501;-56
2022/07/20 08:09:32;;;;;;;25.83;15.32;;;32.10;55.60;;;;;;4991245;28;20038;-56
2022/07/20 08:11:58;;;;;;;24.95;14.45;;;32.90;54.90;;;;;;4990374;28;20116;-58
2022/07/20 08:14:24;;;;;;;23.00;13.07;;;33.90;54.20;;;;;;4988075;28;20054;-56
2022/07/20 08:16:49;;;;;;;21.25;13.27;;;34.70;52.90;;;;;;4990236;28;20388;-59
2022/07/20 08:19:15;;;;;;;27.00;13.80;;;35.40;51.50;;;;;;4991092;28;20057;-58
2022/07/20 08:21:40;;;;;;;19.77;13.38;;;36.20;50.70;;;;;;4989779;28;20030;-59
2022/07/20 08:24:06;;;;;;;25.35;14.40;;;35.60;50.60;;;;;;4991251;28;20038;-59
2022/07/20 08:26:32;;;;;;;21.80;12.85;;;35.20;51.60;;;;;;4989790;28;20373;-58
2022/07/20 08:28:58;;;;;;;22.73;14.38;;;35.00;51.80;;;;;;4989190;28;20704;-58
2022/07/20 08:31:24;;;;;;;24.77;13.90;;;34.40;52.10;;;;;;4990814;28;20038;-58
2022/07/20 08:33:49;;;;;;;20.65;13.15;;;34.30;53.40;;;;;;4989646;28;20412;-59
2022/07/20 08:36:15;;;;;;;26.67;14.60;;;34.20;53.10;;;;;;4989997;28;20077;-59
2022/07/20 08:38:41;;;;;;;27.25;14.05;;;33.40;53.60;;;;;;4989111;28;20519;-58
2022/07/20 08:41:09;;;;;;;26.80;14.00;;;32.70;55.10;;;;;;4990678;28;20061;-58
2022/07/20 08:43:35;;;;;;;26.00;13.32;;;32.70;55.40;;;;;;4990048;28;20439;-59
2022/07/20 08:46:02;;;;;;;26.52;12.98;;;32.90;55.20;;;;;;4990621;28;20093;-59
2022/07/20 08:48:27;;;;;;;31.77;13.60;;;33.30;55.70;;;;;;4989820;28;20126;-59
2022/07/20 08:50:54;;;;;;;33.30;12.82;;;34.10;54.20;;;;;;4989917;28;20119;-59
2022/07/20 08:53:20;;;;;;;20.05;13.02;;;34.70;53.20;;;;;;4989889;28;20683;-57
2022/07/20 08:55:46;;;;;;;21.55;13.43;;;35.50;52.30;;;;;;4990564;28;20022;-59
2022/07/20 08:58:12;;;;;;;18.73;11.60;;;35.60;51.10;;;;;;4980059;28;20562;-56
2022/07/20 09:00:39;;;;;;;21.35;12.18;;;36.00;50.80;;;;;;4990616;28;20026;-59
2022/07/20 09:03:07;;;;;;;16.80;11.02;;;36.80;49.80;;;;;;4989693;28;20492;-58
2022/07/20 09:05:35;;;;;;;24.80;11.90;;;36.80;49.70;;;;;;4990485;28;20049;-58
2022/07/20 09:08:02;;;;;;;23.02;11.77;;;36.20;49.80;;;;;;4989157;28;20552;-59
2022/07/20 09:10:32;;;;;;;20.35;11.73;;;36.00;50.90;;;;;;4989105;28;20033;-56
2022/07/20 09:13:14;;;;;;;18.55;12.30;;;36.60;49.50;;;;;;4989988;28;20031;-60
2022/07/20 09:15:50;;;;;;;22.85;11.52;;;37.30;48.30;;;;;;4989899;28;20053;-60
2022/07/20 09:18:19;;;;;;;26.02;11.55;;;37.20;49.50;;;;;;4989824;28;20034;-60
2022/07/20 09:20:52;;;;;;;19.45;12.27;;;37.70;48.50;;;;;;4988554;28;20035;-60
2022/07/20 09:23:20;;;;;;;28.98;12.23;;;37.90;47.90;;;;;;4990194;28;20522;-60
2022/07/20 09:25:53;;;;;;;18.30;12.98;;;37.50;48.30;;;;;;4988848;28;20034;-60
2022/07/20 09:28:19;;;;;;;20.42;12.07;;;37.20;48.70;;;;;;4990360;28;20057;-61
2022/07/20 09:30:54;;;;;;;18.55;10.98;;;37.40;50.00;;;;;;4987571;28;20092;-60
2022/07/20 09:33:27;;;;;;;16.75;11.48;;;37.90;48.20;;;;;;4989603;28;20089;-60
2022/07/20 09:35:52;;;;;;;17.20;10.73;;;37.90;48.50;;;;;;4990207;28;20077;-60
2022/07/20 09:38:18;;;;;;;17.38;10.82;;;37.90;48.40;;;;;;4989254;28;20038;-60
2022/07/20 09:40:46;;;;;;;14.90;10.75;;;37.30;48.30;;;;;;5028455;23;20107;-61
2022/07/20 09:43:32;;;;;;;19.60;10.88;;;37.10;49.30;;;;;;5002022;28;20018;-61
2022/07/20 09:46:22;;;;;;;16.77;10.88;;;37.80;48.20;;;;;;5002172;28;20030;-61
2022/07/20 09:48:52;;;;;;;19.02;11.07;;;38.20;47.80;;;;;;5001255;28;20030;-60
2022/07/20 09:51:31;;;;;;;13.30;10.07;;;38.40;47.50;;;;;;4995308;28;20104;-61
2022/07/20 09:54:11;;;;;;;21.70;11.30;;;38.60;47.60;;;;;;5003161;28;20026;-62
2022/07/20 09:56:43;;;;;;;19.70;10.50;;;37.80;47.70;;;;;;5002191;28;20028;-62
2022/07/20 09:59:11;;;;;;;21.63;10.55;;;37.50;48.60;;;;;;4995814;28;20136;-61
2022/07/20 10:01:42;;;;;;;19.33;10.38;;;37.30;48.80;;;;;;5005913;28;20197;-62
2022/07/20 10:04:10;;;;;;;14.75;9.73;;;37.60;49.00;;;;;;5009021;28;20037;-62
2022/07/20 10:06:39;;;;;;;21.40;9.88;;;37.20;47.80;;;;;;5009717;28;20040;-61
2022/07/20 10:09:06;;;;;;;16.85;10.48;;;37.30;48.00;;;;;;5012642;28;20499;-61
2022/07/20 10:11:32;;;;;;;16.80;9.98;;;36.60;49.20;;;;;;5011205;28;20036;-61
2022/07/20 10:14:01;;;;;;;30.92;10.32;;;36.50;49.30;;;;;;5006940;28;20060;-60
2022/07/20 10:16:54;;;;;;;24.33;10.30;;;36.30;50.00;;;;;;5003653;28;20503;-60
2022/07/20 10:19:45;;;;;;;15.80;11.38;;;35.60;50.00;;;;;;5005645;28;20048;-59
2022/07/20 10:22:11;;;;;;;23.00;11.43;;;35.60;50.10;;;;;;5001599;28;20085;-61
2022/07/20 10:24:39;;;;;;;25.92;10.50;;;35.00;50.70;;;;;;5010581;28;20033;-61
2022/07/20 10:27:13;;;;;;;18.05;11.07;;;34.90;51.80;;;;;;5009678;28;20042;-61
2022/07/20 10:29:47;;;;;;;19.83;10.82;;;34.80;51.30;;;;;;5000286;28;20100;-60
2022/07/20 10:32:20;;;;;;;17.88;10.50;;;34.60;52.20;;;;;;5010222;28;20053;-60
2022/07/20 10:34:47;;;;;;;17.83;10.95;;;34.50;51.60;;;;;;5004952;28;20033;-62
2022/07/20 10:37:41;;;;;;;18.13;11.00;;;34.20;52.00;;;;;;5001916;28;20026;-60
2022/07/20 10:41:31;;;;;;;22.60;11.80;;;33.90;52.10;;;;;;5009321;28;20042;-61
2022/07/20 10:43:19;;;;;;;21.33;12.38;;;33.80;52.70;;;;;;4999987;28;20042;-61
2022/07/20 10:45:46;;;;;;;26.10;13.15;;;33.60;53.80;;;;;;5005156;28;20030;-61
2022/07/20 10:48:13;;;;;;;23.13;13.07;;;33.50;54.20;;;;;;5005456;28;20077;-61
2022/07/20 10:50:44;;;;;;;22.48;10.90;;;33.70;54.30;;;;;;5001495;28;20061;-61
2022/07/20 10:53:10;;;;;;;19.50;10.37;;;33.70;52.90;;;;;;5004202;28;20033;-60
2022/07/20 10:55:36;;;;;;;16.98;11.02;;;33.70;53.70;;;;;;5001241;28;20026;-60
2022/07/20 10:58:09;;;;;;;19.02;10.65;;;33.60;53.60;;;;;;5005252;28;20077;-60
2022/07/20 11:00:41;;;;;;;16.13;11.20;;;33.50;53.40;;;;;;5011789;28;20022;-60
2022/07/20 11:03:14;;;;;;;22.90;11.23;;;33.30;54.30;;;;;;5010126;28;20108;-61
2022/07/20 11:05:40;;;;;;;16.38;9.90;;;33.30;53.20;;;;;;4998235;28;20510;-60
2022/07/20 11:08:08;;;;;;;20.98;11.65;;;33.10;54.10;;;;;;5001673;28;21666;-60
2022/07/20 11:10:33;;;;;;;18.42;11.55;;;32.80;54.10;;;;;;4999938;28;20049;-61
2022/07/20 11:13:04;;;;;;;19.95;11.73;;;33.00;54.70;;;;;;5009141;28;20057;-60
2022/07/20 11:15:58;;;;;;;22.25;10.73;;;32.90;54.70;;;;;;4999296;28;20054;-61
2022/07/20 11:18:27;;;;;;;21.38;11.98;;;32.80;54.20;;;;;;5004888;28;20057;-61
2022/07/20 11:20:58;;;;;;;20.52;11.52;;;32.50;55.40;;;;;;5001295;28;20025;-60
2022/07/20 11:23:48;;;;;;;22.83;12.07;;;32.60;55.60;;;;;;5002849;28;20027;-62
2022/07/20 11:26:17;;;;;;;19.55;11.68;;;32.60;55.00;;;;;;5000718;28;20037;-61
2022/07/20 11:28:49;;;;;;;16.60;11.02;;;32.50;55.10;;;;;;4998378;28;20034;-60
2022/07/20 11:31:20;;;;;;;20.85;11.38;;;32.40;56.60;;;;;;4995613;28;20033;-60
2022/07/20 11:33:48;;;;;;;21.75;11.10;;;32.60;55.10;;;;;;4995184;28;20037;-61
2022/07/20 11:36:18;;;;;;;16.63;10.68;;;32.40;55.00;;;;;;5004229;28;20060;-60
2022/07/20 11:38:51;;;;;;;17.95;10.95;;;32.40;55.40;;;;;;4998229;28;20475;-60
2022/07/20 11:41:24;;;;;;;17.85;10.65;;;32.50;55.50;;;;;;5004809;28;20419;-61
2022/07/20 11:43:51;;;;;;;18.08;11.20;;;32.20;55.40;;;;;;5009326;28;20036;-61
2022/07/20 11:46:22;;;;;;;17.08;11.48;;;32.20;56.40;;;;;;5010788;28;20041;-61
2022/07/20 11:48:54;;;;;;;19.30;12.38;;;32.20;57.20;;;;;;5004707;28;20038;-61
2022/07/20 11:51:19;;;;;;;19.15;12.52;;;32.30;57.40;;;;;;5005656;28;20033;-61
2022/07/20 11:53:45;;;;;;;22.33;12.35;;;32.10;58.20;;;;;;5008522;28;20156;-61
2022/07/20 11:56:16;;;;;;;26.52;13.07;;;32.40;57.20;;;;;;5006357;28;20026;-61
2022/07/20 11:58:44;;;;;;;22.30;12.40;;;32.50;57.00;;;;;;5001134;28;20034;-62
2022/07/20 12:01:13;;;;;;;23.90;12.07;;;32.50;56.60;;;;;;5000545;28;20513;-60
2022/07/20 12:03:41;;;;;;;22.35;11.98;;;32.30;56.10;;;;;;5010813;28;20492;-60
2022/07/20 12:06:12;;;;;;;23.50;11.50;;;32.00;56.30;;;;;;5003550;28;20030;-61
2022/07/20 12:08:39;;;;;;;23.75;12.23;;;32.00;56.70;;;;;;4990703;28;20043;-57
2022/07/20 12:11:07;;;;;;;20.85;11.00;;;32.00;58.00;;;;;;5000506;28;20038;-62
2022/07/20 12:13:47;;;;;;;15.10;10.52;;;32.10;56.90;;;;;;5005723;28;20486;-60
2022/07/20 12:16:14;;;;;;;16.63;10.63;;;32.00;56.40;;;;;;5000304;28;20030;-58
2022/07/20 12:18:50;;;;;;;16.63;10.98;;;32.00;56.10;;;;;;5006558;28;20029;-59
2022/07/20 12:21:27;;;;;;;15.63;10.00;;;31.90;56.60;;;;;;5002918;28;20022;-59
2022/07/20 12:23:54;;;;;;;20.75;10.55;;;31.80;56.90;;;;;;4995397;28;20037;-59
2022/07/20 12:26:40;;;;;;;21.40;11.05;;;31.80;58.00;;;;;;5001039;28;20116;-59
2022/07/20 12:29:19;;;;;;;24.65;12.82;;;31.90;57.80;;;;;;5009337;28;20484;-61
2022/07/20 12:31:55;;;;;;;21.40;11.52;;;31.60;57.00;;;;;;5005771;28;20033;-59
2022/07/20 12:34:21;;;;;;;22.02;10.07;;;31.40;57.90;;;;;;5004909;28;20038;-59
2022/07/20 12:36:48;;;;;;;23.05;11.05;;;31.40;57.20;;;;;;5004541;28;20025;-59
2022/07/20 12:39:35;;;;;;;15.23;10.50;;;31.60;57.00;;;;;;4998725;28;20038;-61